Terminal Aerodrome Forecast
Issued by NWS

Home | Current Version | Previous Version | Text Only | Print | Product List | Glossary On
Versions: 1 2 3 4 5 6 7 8 9 10 11 12 13 14
974
FTUS43 KMQT 262334
TAFCMX
TAF
KCMX 262334Z 2700/2724 29005KT P6SM SCT200
     FM270200 08003KT P6SM FEW200
     FM270700 13004KT P6SM BKN200
     FM272000 10008KT P6SM BKN090=

USA.gov is the U.S. government's official web portal to all federal, state and local government web resources and services.